This demonstration page uses our WeatherBlox Daily Observations layout. Learn more.

Left ArrowRight Arrow

Hourly Observations for February 9, 2021

Temp ( °F °C ) Dew Point ( °F °C ) Humidity (%) Winds ( mph kmh ) Pressure ( in mb ) Visibility ( mi km ) Precip ( " mm )
12:54 am 00:54 Clear -10 -23.3 -15 -26.1 78 78 NNW 5 7 30.49 1033 10 16.0934 0 0
1:54 am 01:54 Clear -14 -25.6 -18 -27.8 82 82 N 8 13 30.49 1032 10 16.0934 0 0
2:54 am 02:54 Clear -13 -25 -18 -27.8 78 78 N 8 13 30.5 1033 10 16.0934 0 0
3:54 am 03:54 Clear -12 -24.4 -17 -27.2 78 78 NNW 6 9 30.5 1033 10 16.0934 0 0
4:54 am 04:54 Clear -16 -26.7 -20 -28.9 82 82 N 6 9 30.5 1033 10 16.0934 0 0
5:54 am 05:54 Clear -17 -27.2 -22 -30 77 77 N 6 9 30.5 1033 10 16.0934 0 0
6:54 am 06:54 Clear -15 -26.1 -20 -28.9 77 77 N 3 6 30.52 1034 10 16.0934 0 0
7:54 am 07:54 Sunny -17 -27.2 -22 -30 77 77 N 5 7 30.54 1034 10 16.0934 0 0
8:54 am 08:54 Sunny -13 -25 -19 -28.3 74 74 N 5 7 30.54 1034 10 16.0934 0 0
9:54 am 09:54 Sunny -8 -22.2 -14 -25.6 74 74 N 3 6 30.55 1035 10 16.0934 0 0
10:54 am 10:54 Sunny -2 -18.9 -9 -22.8 72 72 N 6 9 30.55 1034 10 16.0934 0 0
11:54 am 11:54 Sunny 2 -16.7 -8 -22.2 63 63 N 7 11 30.54 1034 10 16.0934 0 0
12:54 pm 12:54 Sunny 6 -14.4 -6 -21.1 57 57 Calm 30.51 1033 10 16.0934 0 0
1:54 pm 13:54 Sunny 7 -13.9 -6 -21.1 55 55 N 3 6 30.5 1033 10 16.0934 0 0
2:54 pm 14:54 Sunny 8 -13.3 -7 -21.7 50 50 N 6 9 30.49 1033 10 16.0934 0 0
3:54 pm 15:54 Sunny 7 -13.9 -7 -21.7 52 52 NNE 7 11 30.48 1032 10 16.0934 0 0
4:54 pm 16:54 Sunny 7 -13.9 -7 -21.7 52 52 NE 7 11 30.46 1032 10 16.0934 0 0
5:54 pm 17:54 Sunny 6 -14.4 -7 -21.7 54 54 NNE 5 7 30.47 1032 10 16.0934 0 0
6:54 pm 18:54 Clear 6 -14.4 -6 -21.1 57 57 NNE 5 7 30.48 1032 10 16.0934 0 0
7:54 pm 19:54 Clear 6 -14.4 -6 -21.1 57 57 N 5 7 30.5 1033 10 16.0934 0 0
8:54 pm 20:54 Clear 6 -14.4 -5 -20.6 60 60 NE 5 7 30.49 1032 10 16.0934 0 0
9:54 pm 21:54 Clear 7 -13.9 -5 -20.6 57 57 NE 3 6 30.49 1032 10 16.0934 0 0
10:54 pm 22:54 Mostly Cloudy 7 -13.9 -5 -20.6 57 57 NE 3 6 30.48 1032 10 16.0934 0 0
11:54 pm 23:54 Mostly Cloudy 7 -13.9 -3 -19.4 63 63 NNE 5 7 30.49 1032 10 16.0934 0 0

Powered by AerisWeather